createdAt,value
2023-03-15T00:02:01.516Z,61.92
2023-03-15T00:04:28.759Z,61.92
2023-03-15T00:07:00.980Z,61.80
2023-03-15T00:09:30.820Z,61.67
2023-03-15T00:11:57.464Z,62.11
2023-03-15T00:14:26.865Z,62.34
2023-03-15T00:16:55.702Z,62.15
2023-03-15T00:19:26.732Z,62.03
2023-03-15T00:21:53.374Z,61.98
2023-03-15T00:24:19.994Z,62.32
2023-03-15T00:26:46.624Z,63.18
2023-03-15T00:29:13.268Z,63.19
2023-03-15T00:31:39.969Z,63.66
2023-03-15T00:34:06.557Z,63.29
2023-03-15T00:36:33.190Z,63.79
2023-03-15T00:38:59.856Z,64.33
2023-03-15T00:41:28.641Z,64.63
2023-03-15T00:43:56.457Z,64.75
2023-03-15T00:46:26.054Z,64.75
2023-03-15T00:48:53.052Z,64.11
2023-03-15T00:51:21.980Z,64.47
2023-03-15T00:53:52.116Z,64.35
2023-03-15T00:56:24.516Z,64.40
2023-03-15T00:58:55.188Z,65.14
2023-03-15T01:01:29.830Z,65.64
2023-03-15T01:03:59.213Z,65.95
2023-03-15T01:06:29.397Z,65.97
2023-03-15T01:08:59.873Z,65.43
2023-03-15T01:11:30.369Z,64.76
2023-03-15T01:13:59.155Z,65.14
2023-03-15T01:16:28.527Z,65.16
2023-03-15T01:18:55.661Z,65.60
2023-03-15T01:21:23.884Z,65.24
2023-03-15T01:23:51.074Z,64.87
2023-03-15T01:26:18.045Z,65.50
2023-03-15T01:28:48.537Z,66.14
2023-03-15T01:31:25.574Z,65.52
2023-03-15T01:33:52.995Z,65.13
2023-03-15T01:36:20.112Z,65.43
2023-03-15T01:38:47.341Z,66.32
2023-03-15T01:41:20.967Z,66.47
2023-03-15T01:43:50.768Z,65.82
2023-03-15T01:46:23.570Z,65.52
2023-03-15T01:48:58.740Z,64.97
2023-03-15T01:51:37.232Z,65.85
2023-03-15T01:54:11.225Z,65.23
2023-03-15T01:56:47.557Z,65.36
2023-03-15T01:59:25.348Z,64.93
2023-03-15T02:01:55.520Z,64.78
2023-03-15T02:04:46.569Z,65.01
2023-03-15T02:07:17.060Z,65.86
2023-03-15T02:09:55.621Z,66.28
2023-03-15T02:12:22.265Z,66.64
2023-03-15T02:14:53.953Z,67.23
2023-03-15T02:17:28.145Z,67.34
2023-03-15T02:19:59.042Z,67.93
2023-03-15T02:22:40.090Z,67.73
2023-03-15T02:25:26.656Z,67.72
2023-03-15T02:27:59.324Z,67.75
2023-03-15T02:30:26.001Z,68.18
2023-03-15T02:32:52.641Z,67.20
2023-03-15T02:35:24.737Z,67.03
2023-03-15T02:37:54.073Z,66.59
2023-03-15T02:40:24.114Z,67.10
2023-03-15T02:42:59.373Z,68.50
2023-03-15T02:45:32.973Z,68.73
2023-03-15T02:48:02.674Z,70.25
2023-03-15T02:50:29.568Z,70.50
2023-03-15T02:52:57.537Z,70.73
2023-03-15T02:55:24.469Z,70.64
2023-03-15T02:57:51.181Z,69.77
2023-03-15T03:00:18.192Z,70.33
2023-03-15T03:02:49.664Z,71.66
2023-03-15T03:05:17.597Z,72.31
2023-03-15T03:07:44.703Z,70.61
2023-03-15T03:10:14.040Z,70.52
2023-03-15T03:12:43.035Z,70.16
2023-03-15T03:15:10.803Z,71.42
2023-03-15T03:17:40.517Z,71.08
2023-03-15T03:20:09.936Z,72.28
2023-03-15T03:22:37.790Z,72.86
2023-03-15T03:25:06.318Z,72.08
2023-03-15T03:27:40.870Z,73.56
2023-03-15T03:30:10.209Z,73.69
2023-03-15T03:32:39.894Z,72.40
2023-03-15T03:35:07.667Z,71.52
2023-03-15T03:37:35.859Z,72.05
2023-03-15T03:40:07.856Z,71.31
2023-03-15T03:42:36.992Z,70.82
2023-03-15T03:45:03.884Z,70.55
2023-03-15T03:47:30.587Z,71.77
2023-03-15T03:49:58.725Z,71.69
2023-03-15T03:52:25.392Z,71.26
2023-03-15T03:54:52.076Z,72.50
2023-03-15T03:57:18.885Z,73.04
2023-03-15T03:59:45.591Z,73.00
2023-03-15T04:02:12.270Z,74.23
2023-03-15T04:04:41.473Z,73.21
2023-03-15T04:07:08.618Z,73.57
2023-03-15T04:09:40.011Z,73.68
2023-03-15T04:12:06.864Z,73.27
2023-03-15T04:14:33.771Z,73.53
2023-03-15T04:17:03.868Z,73.10
2023-03-15T04:19:31.171Z,73.21
2023-03-15T04:21:57.887Z,73.13
2023-03-15T04:24:26.433Z,72.45
2023-03-15T04:26:57.964Z,73.20
2023-03-15T04:29:24.689Z,72.78
2023-03-15T04:31:54.304Z,73.01
2023-03-15T04:34:28.383Z,73.08
2023-03-15T04:36:57.100Z,72.81
2023-03-15T04:39:27.130Z,72.66
2023-03-15T04:41:55.850Z,73.33
2023-03-15T04:44:26.742Z,72.89
2023-03-15T04:46:55.399Z,72.33
2023-03-15T04:49:27.298Z,72.15
2023-03-15T04:51:53.920Z,71.76
2023-03-15T04:54:20.604Z,72.01
2023-03-15T04:56:47.226Z,71.87
2023-03-15T04:59:14.016Z,71.53
2023-03-15T05:01:40.735Z,71.42
2023-03-15T05:04:07.335Z,71.04
2023-03-15T05:06:33.948Z,71.23
2023-03-15T05:09:00.639Z,71.42
2023-03-15T05:11:27.315Z,71.37
2023-03-15T05:13:56.512Z,71.21
2023-03-15T05:16:23.179Z,71.29
2023-03-15T05:18:49.764Z,71.16
2023-03-15T05:21:16.537Z,71.55
2023-03-15T05:23:43.256Z,71.36
2023-03-15T05:26:09.840Z,71.50
2023-03-15T05:28:40.748Z,71.01
2023-03-15T05:31:07.467Z,71.55
2023-03-15T05:33:34.108Z,71.62
2023-03-15T05:36:01.164Z,71.59
2023-03-15T05:38:27.989Z,71.19
2023-03-15T05:40:54.840Z,70.60
2023-03-15T05:43:25.352Z,70.10
2023-03-15T05:45:52.540Z,69.95
2023-03-15T05:48:19.222Z,69.62
2023-03-15T05:50:48.041Z,69.21
2023-03-15T05:53:14.764Z,68.82
2023-03-15T05:55:41.478Z,68.50
2023-03-15T05:58:08.138Z,68.43
2023-03-15T06:00:34.809Z,68.02
2023-03-15T06:03:01.585Z,68.16
2023-03-15T06:05:28.287Z,68.08
2023-03-15T06:07:54.915Z,67.66
2023-03-15T06:10:22.174Z,67.86
2023-03-15T06:12:52.263Z,67.74
2023-03-15T06:15:19.821Z,67.12
2023-03-15T06:17:46.727Z,66.53
2023-03-15T06:20:18.536Z,66.42
2023-03-15T06:22:48.451Z,66.10
2023-03-15T06:25:15.263Z,65.68
2023-03-15T06:27:41.938Z,65.02
2023-03-15T06:30:09.199Z,64.61
2023-03-15T06:32:35.966Z,64.16
2023-03-15T06:35:05.380Z,63.74
2023-03-15T06:37:35.350Z,63.22
2023-03-15T06:40:07.562Z,62.10
2023-03-15T06:42:34.659Z,61.36
2023-03-15T06:45:02.105Z,60.62
2023-03-15T06:47:29.014Z,60.26
2023-03-15T06:49:56.911Z,59.83
2023-03-15T06:52:24.094Z,59.82
2023-03-15T06:54:52.893Z,59.36
2023-03-15T06:57:19.542Z,59.64
2023-03-15T06:59:46.189Z,59.44
2023-03-15T07:02:20.735Z,59.25
2023-03-15T07:04:48.106Z,58.44
2023-03-15T07:07:18.612Z,58.15
2023-03-15T07:09:47.595Z,57.93
2023-03-15T07:12:19.240Z,56.90
2023-03-15T07:14:51.086Z,57.15
2023-03-15T07:17:17.803Z,56.71
2023-03-15T07:19:55.880Z,56.74
2023-03-15T07:22:28.616Z,56.42
2023-03-15T07:24:56.969Z,56.48
2023-03-15T07:27:23.640Z,56.44
2023-03-15T07:29:53.175Z,55.78
2023-03-15T07:32:22.407Z,55.62
2023-03-15T07:34:49.070Z,55.39
2023-03-15T07:37:17.016Z,54.68
2023-03-15T07:39:46.860Z,53.85
2023-03-15T07:42:13.397Z,53.49
2023-03-15T07:44:40.422Z,52.45
2023-03-15T07:47:07.124Z,52.97
2023-03-15T07:49:34.731Z,54.05
2023-03-15T07:52:05.846Z,53.87
2023-03-15T07:54:34.426Z,53.55
2023-03-15T07:57:05.716Z,53.08
2023-03-15T07:59:32.300Z,53.00
2023-03-15T08:02:01.541Z,53.06
2023-03-15T08:04:29.408Z,52.02
2023-03-15T08:06:56.181Z,51.10
2023-03-15T08:09:22.823Z,50.33
2023-03-15T08:11:49.347Z,50.01
2023-03-15T08:14:15.857Z,49.53
2023-03-15T08:16:42.471Z,49.29
2023-03-15T08:19:09.381Z,48.51
2023-03-15T08:21:35.899Z,48.02
2023-03-15T08:24:02.431Z,47.41
2023-03-15T08:26:28.971Z,45.77
2023-03-15T08:28:55.542Z,45.49
2023-03-15T08:31:22.125Z,44.74
2023-03-15T08:33:51.027Z,44.66
2023-03-15T08:36:17.817Z,44.08
2023-03-15T08:38:44.326Z,42.91
2023-03-15T08:41:12.057Z,41.94
2023-03-15T08:43:40.938Z,41.02
2023-03-15T08:46:07.566Z,39.74
2023-03-15T08:48:35.241Z,39.17
2023-03-15T08:51:06.127Z,39.46
2023-03-15T08:53:33.029Z,39.89
2023-03-15T08:56:02.086Z,39.40
2023-03-15T08:58:28.831Z,39.02
2023-03-15T09:00:57.596Z,39.35
2023-03-15T09:03:24.091Z,39.49
2023-03-15T09:05:51.523Z,38.80
2023-03-15T09:08:21.264Z,37.89
2023-03-15T09:10:59.544Z,37.86
2023-03-15T09:13:35.134Z,37.74
2023-03-15T09:16:03.476Z,37.55
2023-03-15T09:18:33.228Z,37.20
2023-03-15T09:21:02.500Z,36.88
2023-03-15T09:23:29.141Z,37.05
2023-03-15T09:25:55.706Z,36.32
2023-03-15T09:28:22.444Z,35.78
2023-03-15T09:30:50.380Z,35.53
2023-03-15T09:33:18.520Z,35.58
2023-03-15T09:35:45.058Z,35.19
2023-03-15T09:38:14.974Z,35.26
2023-03-15T09:40:45.056Z,35.60
2023-03-15T09:43:17.767Z,35.42
2023-03-15T09:45:52.378Z,35.43
2023-03-15T09:48:36.166Z,35.21
2023-03-15T09:51:04.843Z,35.42
2023-03-15T09:53:37.780Z,35.74
2023-03-15T09:56:18.898Z,36.03
2023-03-15T09:58:45.847Z,35.66
2023-03-15T10:01:13.404Z,35.44
2023-03-15T10:03:50.242Z,35.03
2023-03-15T10:06:24.389Z,35.34
2023-03-15T10:08:54.718Z,35.37
2023-03-15T10:11:33.235Z,35.69
2023-03-15T10:14:02.684Z,36.02
2023-03-15T10:16:34.399Z,36.23
2023-03-15T10:19:18.061Z,36.39
2023-03-15T10:22:10.247Z,36.56
2023-03-15T10:24:45.853Z,36.71
2023-03-15T10:27:16.124Z,36.69
2023-03-15T10:29:47.662Z,36.57
2023-03-15T10:32:17.881Z,36.59
2023-03-15T10:34:47.855Z,36.71
2023-03-15T10:37:16.870Z,35.80
2023-03-15T10:39:47.964Z,35.17
2023-03-15T10:42:30.113Z,35.27
2023-03-15T10:44:57.472Z,35.47
2023-03-15T10:47:24.948Z,35.38
2023-03-15T10:49:56.836Z,35.39
2023-03-15T10:52:26.436Z,35.37
2023-03-15T10:54:58.800Z,35.15
2023-03-15T10:57:35.254Z,35.10
2023-03-15T11:00:17.382Z,35.24
2023-03-15T11:02:50.787Z,35.18
2023-03-15T11:05:21.661Z,35.05
2023-03-15T11:08:14.736Z,34.99
2023-03-15T11:10:43.915Z,35.02
2023-03-15T11:13:28.980Z,34.84
2023-03-15T11:16:03.840Z,34.54
2023-03-15T11:18:33.381Z,34.44
2023-03-15T11:21:01.909Z,34.50
2023-03-15T11:23:30.124Z,34.38
2023-03-15T11:25:56.905Z,34.08
2023-03-15T11:28:27.380Z,34.11
2023-03-15T11:30:56.433Z,33.85
2023-03-15T11:33:37.380Z,34.01
2023-03-15T11:36:12.451Z,33.97
2023-03-15T11:38:45.807Z,33.79
2023-03-15T11:41:31.196Z,34.01
2023-03-15T11:44:12.830Z,34.20
2023-03-15T11:46:42.465Z,34.19
2023-03-15T11:49:25.077Z,34.30
2023-03-15T11:51:55.884Z,34.11
2023-03-15T11:54:23.152Z,34.16
2023-03-15T11:56:56.931Z,34.10
2023-03-15T11:59:30.749Z,34.16
2023-03-15T12:02:00.889Z,34.12
2023-03-15T12:04:30.531Z,33.39
2023-03-15T12:06:57.765Z,33.12
2023-03-15T12:09:37.346Z,33.06
2023-03-15T12:12:06.774Z,32.73
2023-03-15T12:14:34.506Z,32.36
2023-03-15T12:17:19.862Z,32.73
2023-03-15T12:19:51.730Z,33.15
2023-03-15T12:22:21.441Z,33.04
2023-03-15T12:24:48.284Z,32.88
2023-03-15T12:27:22.213Z,33.02
2023-03-15T12:29:53.981Z,32.90
2023-03-15T12:32:23.702Z,32.43
2023-03-15T12:34:51.805Z,31.95
2023-03-15T12:37:18.397Z,31.46
2023-03-15T12:39:47.848Z,31.24
2023-03-15T12:42:52.986Z,30.87
2023-03-15T12:45:19.511Z,29.74
2023-03-15T12:47:52.019Z,30.93
2023-03-15T12:50:36.928Z,31.15
2023-03-15T12:53:05.297Z,31.56
2023-03-15T12:55:33.228Z,31.39
2023-03-15T12:58:02.882Z,31.40
2023-03-15T13:00:36.318Z,31.62
2023-03-15T13:03:08.966Z,31.36
2023-03-15T13:05:45.204Z,31.03
2023-03-15T13:08:18.617Z,31.39
2023-03-15T13:10:51.179Z,31.42
2023-03-15T13:13:50.293Z,31.17
2023-03-15T13:16:39.817Z,30.98
2023-03-15T13:19:22.976Z,30.92
2023-03-15T13:22:00.258Z,31.52
2023-03-15T13:24:57.897Z,31.48
2023-03-15T13:27:36.310Z,31.53
2023-03-15T13:30:23.137Z,31.84
2023-03-15T13:33:01.610Z,33.30
2023-03-15T13:35:28.169Z,33.53
2023-03-15T13:38:00.838Z,33.56
2023-03-15T13:40:27.335Z,33.81
2023-03-15T13:42:54.455Z,33.82
2023-03-15T13:45:22.451Z,33.58
2023-03-15T13:47:49.096Z,33.63
2023-03-15T13:50:16.760Z,33.04
2023-03-15T13:52:43.936Z,32.60
2023-03-15T13:55:14.878Z,32.36
2023-03-15T13:57:42.023Z,32.84
2023-03-15T14:00:11.959Z,33.46
2023-03-15T14:02:46.058Z,33.60
2023-03-15T14:05:27.056Z,33.56
2023-03-15T14:07:58.299Z,33.79
2023-03-15T14:10:43.100Z,34.40
2023-03-15T14:13:32.658Z,34.58
2023-03-15T14:16:08.598Z,34.45
2023-03-15T14:18:39.614Z,34.67
2023-03-15T14:21:06.137Z,34.62
2023-03-15T14:23:35.670Z,34.94
2023-03-15T14:26:22.882Z,35.05
2023-03-15T14:28:52.080Z,35.05
2023-03-15T14:31:23.781Z,35.05
2023-03-15T14:34:03.057Z,34.56
2023-03-15T14:36:32.572Z,34.94
2023-03-15T14:38:59.647Z,35.02
2023-03-15T14:41:33.532Z,35.25
2023-03-15T14:44:02.012Z,35.58
2023-03-15T14:46:31.442Z,36.04
2023-03-15T14:49:08.803Z,36.35
2023-03-15T14:51:38.048Z,36.43
2023-03-15T14:54:10.019Z,36.74
2023-03-15T14:56:38.066Z,36.81
2023-03-15T14:59:12.766Z,37.04
2023-03-15T15:01:46.825Z,37.33
2023-03-15T15:04:15.416Z,37.54
2023-03-15T15:06:51.677Z,37.69
2023-03-15T15:09:25.274Z,37.83
2023-03-15T15:11:56.420Z,38.14
2023-03-15T15:14:26.250Z,38.33
2023-03-15T15:16:53.039Z,38.56
2023-03-15T15:19:24.761Z,38.64
2023-03-15T15:21:55.152Z,38.71
2023-03-15T15:24:26.332Z,38.84
2023-03-15T15:26:53.209Z,38.99
2023-03-15T15:29:19.869Z,39.19
2023-03-15T15:31:46.644Z,38.68
2023-03-15T15:34:13.196Z,38.46
2023-03-15T15:36:41.127Z,38.51
2023-03-15T15:39:16.190Z,38.68
2023-03-15T15:41:43.560Z,38.90
2023-03-15T15:44:17.443Z,39.47
2023-03-15T15:46:50.484Z,40.25
2023-03-15T15:52:12.297Z,40.57
2023-03-15T15:54:55.179Z,40.71
2023-03-15T15:57:28.124Z,41.03
2023-03-15T15:59:56.101Z,41.14
2023-03-15T16:02:38.356Z,41.18
2023-03-15T16:05:07.348Z,41.16
2023-03-15T16:07:34.917Z,41.17
2023-03-15T16:10:02.249Z,41.32
2023-03-15T16:12:29.247Z,41.32
2023-03-15T16:14:56.097Z,41.28
2023-03-15T16:17:36.117Z,41.32
2023-03-15T16:20:09.590Z,41.76
2023-03-15T16:22:49.481Z,41.79
2023-03-15T16:25:34.373Z,42.01
2023-03-15T16:33:33.872Z,42.23
2023-03-15T16:36:15.930Z,42.56
2023-03-15T16:38:43.702Z,43.16
2023-03-15T16:41:13.163Z,43.65
2023-03-15T16:43:42.759Z,44.95
2023-03-15T16:46:13.645Z,45.11
2023-03-15T16:48:57.712Z,45.11
2023-03-15T16:51:24.283Z,45.99
2023-03-15T16:54:08.583Z,46.55
2023-03-15T16:56:42.369Z,47.28
2023-03-15T16:59:15.259Z,47.38
2023-03-15T17:01:47.611Z,47.47
2023-03-15T17:04:18.597Z,47.87
2023-03-15T17:06:47.225Z,47.55
2023-03-15T17:09:23.970Z,47.45
2023-03-15T17:11:52.396Z,47.82
2023-03-15T17:14:38.851Z,48.31
2023-03-15T17:17:09.882Z,48.58
2023-03-15T17:19:37.269Z,48.51
2023-03-15T17:22:07.089Z,49.13
2023-03-15T17:24:34.505Z,49.33
2023-03-15T17:27:01.094Z,49.35
2023-03-15T17:29:28.659Z,49.25
2023-03-15T17:32:00.894Z,49.55
2023-03-15T17:34:27.644Z,49.24
2023-03-15T17:36:57.619Z,49.28
2023-03-15T17:39:27.256Z,49.33
2023-03-15T17:41:53.870Z,48.75
2023-03-15T17:44:20.388Z,48.29
2023-03-15T17:46:47.340Z,48.56
2023-03-15T17:49:15.876Z,49.40
2023-03-15T17:51:42.642Z,49.46
2023-03-15T17:54:13.574Z,49.68
2023-03-15T17:56:42.855Z,50.00
2023-03-15T17:59:12.130Z,49.86
2023-03-15T18:01:44.153Z,50.14
2023-03-15T18:04:12.066Z,49.98
2023-03-15T18:06:42.485Z,50.05
2023-03-15T18:09:23.683Z,50.72
2023-03-15T18:11:58.950Z,50.77
2023-03-15T18:14:27.897Z,50.79
2023-03-15T18:16:57.278Z,50.77
2023-03-15T18:19:24.386Z,51.10
2023-03-15T18:21:52.179Z,51.20
2023-03-15T18:24:19.424Z,50.80
2023-03-15T18:26:46.003Z,50.84
2023-03-15T18:29:12.744Z,51.23
2023-03-15T18:31:47.743Z,51.54
2023-03-15T18:34:21.934Z,52.04
2023-03-15T18:36:53.299Z,52.08
2023-03-15T18:39:20.077Z,51.97
2023-03-15T18:41:46.627Z,52.12
2023-03-15T18:44:18.730Z,52.64
2023-03-15T18:46:45.374Z,51.95
2023-03-15T18:49:15.061Z,52.09
2023-03-15T18:51:42.700Z,52.13
2023-03-15T18:54:12.057Z,52.08
2023-03-15T18:56:56.735Z,52.36
2023-03-15T18:59:26.541Z,52.94
2023-03-15T19:01:55.484Z,52.98
2023-03-15T19:04:22.365Z,53.67
2023-03-15T19:06:50.871Z,53.90
2023-03-15T19:09:17.921Z,54.23
2023-03-15T19:11:44.796Z,54.71
2023-03-15T19:14:11.474Z,55.26
2023-03-15T19:16:48.794Z,56.07
2023-03-15T19:19:18.785Z,56.49
2023-03-15T19:21:45.433Z,57.64
2023-03-15T19:24:12.033Z,58.31
2023-03-15T19:26:38.732Z,58.66
2023-03-15T19:29:08.895Z,59.21
2023-03-15T19:31:35.579Z,60.84
2023-03-15T19:34:02.145Z,61.78
2023-03-15T19:36:31.374Z,62.51
2023-03-15T19:39:03.323Z,63.56
2023-03-15T19:42:01.796Z,63.97
2023-03-15T19:44:47.647Z,64.77
2023-03-15T19:47:14.264Z,65.16
2023-03-15T19:49:43.602Z,65.83
2023-03-15T19:52:11.202Z,66.31
2023-03-15T19:54:37.850Z,66.66
2023-03-15T19:57:06.725Z,67.53
2023-03-15T19:59:39.727Z,67.63
2023-03-15T20:02:17.858Z,67.49
2023-03-15T20:04:44.724Z,68.13
2023-03-15T20:07:11.356Z,68.43
2023-03-15T20:09:41.609Z,69.14
2023-03-15T20:12:11.174Z,69.43
2023-03-15T20:14:38.381Z,69.90
2023-03-15T20:17:05.569Z,70.07
2023-03-15T20:19:42.141Z,70.08
2023-03-15T20:22:11.817Z,70.36
2023-03-15T20:24:55.326Z,70.54
2023-03-15T20:27:53.612Z,70.87
2023-03-15T20:37:09.313Z,71.35
2023-03-15T20:39:35.962Z,71.51
2023-03-15T20:42:03.655Z,71.69
2023-03-15T20:44:32.257Z,72.16
2023-03-15T20:46:59.518Z,72.10
2023-03-15T20:49:28.874Z,72.27
2023-03-15T20:51:59.660Z,72.39
2023-03-15T20:54:26.309Z,72.64
2023-03-15T20:57:08.585Z,72.72
2023-03-15T20:59:38.114Z,72.85
2023-03-15T21:02:07.104Z,73.05
2023-03-15T21:04:36.560Z,72.89
2023-03-15T21:07:04.566Z,72.93
2023-03-15T21:09:32.236Z,73.22
2023-03-15T21:12:03.136Z,73.20
2023-03-15T21:14:34.990Z,73.42
2023-03-15T21:17:04.275Z,73.68
2023-03-15T21:19:36.054Z,73.80
2023-03-15T21:22:05.906Z,73.58
2023-03-15T21:24:40.674Z,73.91
2023-03-15T21:27:11.427Z,74.12
2023-03-15T21:29:40.089Z,74.35
2023-03-15T21:32:07.116Z,74.46
2023-03-15T21:34:34.339Z,74.56
2023-03-15T21:37:02.793Z,74.47
2023-03-15T21:39:29.406Z,74.60
2023-03-15T21:41:56.032Z,74.82
2023-03-15T21:44:24.639Z,74.74
2023-03-15T21:46:57.585Z,75.08
2023-03-15T21:49:26.736Z,75.15
2023-03-15T21:51:59.511Z,75.41
2023-03-15T21:54:31.798Z,75.53
2023-03-15T21:56:58.606Z,75.84
2023-03-15T21:59:27.999Z,75.66
2023-03-15T22:01:56.102Z,75.87
2023-03-15T22:04:25.441Z,75.93
2023-03-15T22:06:58.038Z,76.09
2023-03-15T22:09:27.580Z,76.26
2023-03-15T22:11:54.207Z,76.38
2023-03-15T22:14:27.987Z,76.07
2023-03-15T22:16:57.732Z,76.30
2023-03-15T22:19:24.414Z,76.27
2023-03-15T22:21:53.276Z,76.62
2023-03-15T22:24:24.394Z,76.69
2023-03-15T22:26:53.288Z,76.69
2023-03-15T22:29:23.080Z,76.67
2023-03-15T22:31:51.882Z,77.23
2023-03-15T22:34:18.663Z,77.67
2023-03-15T22:36:45.376Z,77.42
2023-03-15T22:39:14.539Z,77.57
2023-03-15T22:41:43.610Z,77.55
2023-03-15T22:44:13.253Z,77.38
2023-03-15T22:46:40.174Z,77.40
2023-03-15T22:49:11.624Z,77.47
2023-03-15T22:51:43.479Z,77.49
2023-03-15T22:54:09.976Z,77.71
2023-03-15T22:56:40.993Z,77.81
2023-03-15T22:59:12.030Z,78.13
2023-03-15T23:01:43.836Z,78.34
2023-03-15T23:04:11.056Z,78.38
2023-03-15T23:06:37.626Z,78.38
2023-03-15T23:09:06.514Z,78.55
2023-03-15T23:11:38.529Z,78.64
2023-03-15T23:14:05.007Z,78.71
2023-03-15T23:16:32.081Z,78.74
2023-03-15T23:19:05.110Z,79.11
2023-03-15T23:21:31.707Z,79.05
2023-03-15T23:24:00.501Z,79.11
2023-03-15T23:26:27.100Z,79.02
2023-03-15T23:28:59.421Z,79.46
2023-03-15T23:31:26.183Z,79.24
2023-03-15T23:34:02.004Z,79.23
2023-03-15T23:36:28.710Z,79.24
2023-03-15T23:38:55.456Z,79.43
2023-03-15T23:41:22.090Z,79.40
2023-03-15T23:43:48.813Z,79.42
2023-03-15T23:46:15.933Z,79.49
2023-03-15T23:48:45.333Z,79.56
2023-03-15T23:51:12.695Z,79.49
2023-03-15T23:53:39.372Z,79.54
2023-03-15T23:56:09.402Z,79.38
2023-03-15T23:58:36.127Z,79.61
